createdAt,value
2019-05-17T00:00:22.240Z,10.10
2019-05-17T00:02:49.838Z,10.10
2019-05-17T00:05:17.891Z,10.10
2019-05-17T00:07:47.562Z,10.10
2019-05-17T00:10:17.249Z,10.10
2019-05-17T00:12:46.918Z,10.10
2019-05-17T00:15:16.724Z,10.10
2019-05-17T00:17:43.439Z,10.10
2019-05-17T00:20:11.007Z,10.10
2019-05-17T00:22:38.911Z,10.10
2019-05-17T00:25:07.318Z,10.10
2019-05-17T00:27:36.703Z,10.00
2019-05-17T00:30:06.711Z,10.00
2019-05-17T00:32:36.723Z,10.00
2019-05-17T00:35:03.624Z,10.00
2019-05-17T00:37:31.446Z,10.00
2019-05-17T00:39:58.963Z,10.00
2019-05-17T00:42:26.918Z,10.00
2019-05-17T00:44:56.433Z,10.00
2019-05-17T00:47:23.506Z,10.00
2019-05-17T00:49:51.323Z,9.90
2019-05-17T00:52:19.098Z,9.90
2019-05-17T00:54:46.936Z,9.90
2019-05-17T00:57:16.457Z,9.90
2019-05-17T00:59:44.061Z,9.90
2019-05-17T01:02:11.576Z,9.90
2019-05-17T01:04:39.141Z,9.90
2019-05-17T01:07:07.097Z,9.90
2019-05-17T01:09:36.495Z,9.90
2019-05-17T01:12:03.771Z,9.90
2019-05-17T01:14:31.387Z,9.90
2019-05-17T01:16:58.597Z,9.90
2019-05-17T01:19:27.076Z,9.90
2019-05-17T01:21:56.686Z,9.80
2019-05-17T01:24:23.444Z,9.80
2019-05-17T01:26:51.060Z,9.80
2019-05-17T01:29:18.621Z,9.80
2019-05-17T01:31:46.806Z,9.80
2019-05-17T01:34:16.679Z,9.80
2019-05-17T01:36:46.307Z,9.80
2019-05-17T01:39:17.837Z,9.80
2019-05-17T01:41:42.280Z,9.70
2019-05-17T01:44:10.051Z,9.70
2019-05-17T01:46:37.250Z,9.70
2019-05-17T01:49:06.739Z,9.70
2019-05-17T01:51:34.142Z,9.70
2019-05-17T01:54:01.716Z,9.60
2019-05-17T01:56:29.296Z,9.60
2019-05-17T01:58:57.538Z,9.60
2019-05-17T02:01:27.415Z,9.60
2019-05-17T02:03:57.380Z,9.60
2019-05-17T02:06:27.089Z,9.60
2019-05-17T02:08:56.766Z,9.60
2019-05-17T02:11:26.748Z,9.50
2019-05-17T02:13:56.127Z,9.50
2019-05-17T02:16:23.831Z,9.50
2019-05-17T02:18:51.649Z,9.50
2019-05-17T02:21:19.575Z,9.50
2019-05-17T02:23:47.088Z,9.50
2019-05-17T02:26:14.415Z,9.50
2019-05-17T02:28:41.879Z,9.50
2019-05-17T02:31:09.084Z,9.40
2019-05-17T02:33:36.719Z,9.40
2019-05-17T02:36:03.978Z,9.50
2019-05-17T02:38:33.355Z,9.40
2019-05-17T02:41:03.333Z,9.40
2019-05-17T02:43:33.447Z,9.50
2019-05-17T02:46:03.250Z,9.50
2019-05-17T02:48:29.383Z,9.60
2019-05-17T02:50:57.010Z,9.40
2019-05-17T02:53:24.528Z,9.40
2019-05-17T02:55:53.881Z,9.40
2019-05-17T02:58:23.356Z,9.40
2019-05-17T03:00:53.294Z,9.50
2019-05-17T03:03:23.469Z,9.40
2019-05-17T03:05:53.304Z,9.40
2019-05-17T03:08:23.155Z,9.40
2019-05-17T03:10:48.768Z,9.40
2019-05-17T03:13:18.072Z,9.40
2019-05-17T03:15:45.807Z,9.40
2019-05-17T03:18:13.712Z,9.40
2019-05-17T03:20:43.129Z,9.40
2019-05-17T03:23:12.662Z,9.40
2019-05-17T03:25:44.095Z,9.40
2019-05-17T03:28:13.175Z,9.40
2019-05-17T03:30:45.983Z,9.40
2019-05-17T03:33:15.312Z,9.40
2019-05-17T03:35:45.179Z,9.40
2019-05-17T03:38:13.888Z,9.40
2019-05-17T03:41:07.489Z,9.40
2019-05-17T03:43:13.548Z,9.40
2019-05-17T03:45:42.478Z,9.40
2019-05-17T03:48:09.241Z,9.40
2019-05-17T03:50:37.226Z,9.40
2019-05-17T03:53:04.688Z,9.40
2019-05-17T03:55:33.374Z,9.50
2019-05-17T03:58:03.049Z,9.50
2019-05-17T04:00:34.893Z,9.50
2019-05-17T04:03:02.924Z,9.40
2019-05-17T04:05:33.072Z,9.40
2019-05-17T04:08:03.033Z,9.50
2019-05-17T04:10:29.182Z,9.50
2019-05-17T04:12:57.090Z,9.50
2019-05-17T04:15:24.601Z,9.50
2019-05-17T04:17:53.845Z,9.50
2019-05-17T04:20:22.501Z,9.50
2019-05-17T04:22:52.831Z,9.50
2019-05-17T04:25:23.218Z,9.50
2019-05-17T04:27:49.711Z,9.50
2019-05-17T04:30:18.092Z,9.50
2019-05-17T04:32:46.203Z,9.50
2019-05-17T04:35:14.009Z,9.50
2019-05-17T04:37:44.481Z,9.50
2019-05-17T04:40:14.316Z,9.50
2019-05-17T04:42:43.933Z,9.50
2019-05-17T04:45:12.747Z,9.50
2019-05-17T04:47:43.732Z,9.50
2019-05-17T04:50:12.981Z,9.60
2019-05-17T04:52:42.503Z,9.70
2019-05-17T04:55:13.081Z,9.60
2019-05-17T04:57:38.907Z,9.60
2019-05-17T05:00:06.435Z,9.60
2019-05-17T05:02:33.725Z,9.60
2019-05-17T05:05:03.248Z,9.50
2019-05-17T05:07:33.629Z,9.50
2019-05-17T05:10:03.107Z,9.50
2019-05-17T05:12:33.316Z,9.50
2019-05-17T05:14:59.844Z,9.50
2019-05-17T05:17:27.745Z,9.50
2019-05-17T05:19:55.501Z,9.60
2019-05-17T05:22:22.620Z,9.60
2019-05-17T05:24:52.453Z,9.60
2019-05-17T05:27:22.266Z,9.60
2019-05-17T05:29:52.044Z,9.60
2019-05-17T05:32:22.014Z,9.60
2019-05-17T05:34:49.248Z,9.60
2019-05-17T05:37:20.078Z,9.60
2019-05-17T05:39:47.206Z,9.50
2019-05-17T05:42:14.716Z,9.60
2019-05-17T05:44:42.289Z,9.60
2019-05-17T05:47:11.613Z,9.60
2019-05-17T05:49:39.487Z,9.70
2019-05-17T05:52:06.662Z,9.70
2019-05-17T05:54:34.218Z,9.70
2019-05-17T05:57:02.446Z,9.70
2019-05-17T05:59:31.690Z,9.70
2019-05-17T06:02:01.626Z,9.70
2019-05-17T06:04:31.654Z,9.70
2019-05-17T06:06:58.526Z,9.70
2019-05-17T06:09:25.908Z,9.70
2019-05-17T06:11:53.292Z,9.70
2019-05-17T06:14:21.575Z,9.70
2019-05-17T06:16:48.975Z,9.80
2019-05-17T06:19:16.785Z,9.80
2019-05-17T06:21:44.334Z,9.80
2019-05-17T06:24:12.015Z,9.80
2019-05-17T06:26:42.134Z,9.80
2019-05-17T06:29:11.810Z,9.70
2019-05-17T06:31:39.010Z,9.80
2019-05-17T06:34:06.483Z,9.80
2019-05-17T06:36:34.355Z,9.80
2019-05-17T06:39:04.042Z,9.80
2019-05-17T06:41:32.362Z,9.80
2019-05-17T06:44:02.740Z,9.90
2019-05-17T06:46:32.314Z,9.90
2019-05-17T06:48:59.634Z,9.90
2019-05-17T06:51:27.103Z,9.80
2019-05-17T06:53:54.738Z,9.80
2019-05-17T06:56:23.049Z,9.80
2019-05-17T06:58:50.827Z,9.80
2019-05-17T07:01:19.711Z,9.90
2019-05-17T07:03:49.425Z,9.80
2019-05-17T07:06:21.358Z,9.90
2019-05-17T07:08:49.529Z,9.90
2019-05-17T07:11:17.247Z,9.80
2019-05-17T07:13:44.598Z,9.80
2019-05-17T07:16:12.031Z,9.80
2019-05-17T07:18:40.012Z,9.80
2019-05-17T07:21:09.796Z,9.80
2019-05-17T07:23:39.511Z,9.80
2019-05-17T07:26:09.079Z,9.70
2019-05-17T07:28:36.010Z,9.70
2019-05-17T07:31:03.239Z,9.70
2019-05-17T07:33:30.737Z,9.70
2019-05-17T07:35:59.564Z,9.80
2019-05-17T07:38:30.033Z,9.80
2019-05-17T07:40:59.586Z,9.80
2019-05-17T07:43:26.719Z,9.90
2019-05-17T07:45:54.196Z,9.90
2019-05-17T07:48:21.627Z,9.90
2019-05-17T07:50:50.466Z,9.90
2019-05-17T07:53:20.076Z,9.90
2019-05-17T07:55:47.143Z,9.90
2019-05-17T07:58:14.631Z,9.90
2019-05-17T08:00:42.342Z,10.00
2019-05-17T08:03:12.904Z,10.00
2019-05-17T08:05:40.289Z,9.90
2019-05-17T08:08:09.653Z,10.00
2019-05-17T08:10:40.518Z,10.00
2019-05-17T08:13:06.750Z,10.00
2019-05-17T08:15:34.094Z,10.00
2019-05-17T08:18:01.856Z,10.00
2019-05-17T08:20:29.992Z,10.00
2019-05-17T08:22:59.442Z,10.00
2019-05-17T08:25:26.566Z,10.00
2019-05-17T08:27:54.140Z,10.10
2019-05-17T08:30:21.829Z,10.00
2019-05-17T08:32:50.456Z,10.10
2019-05-17T08:35:19.824Z,10.10
2019-05-17T08:37:49.734Z,10.10
2019-05-17T08:40:16.472Z,10.10
2019-05-17T08:42:43.636Z,10.10
2019-05-17T08:45:11.713Z,10.10
2019-05-17T08:47:39.653Z,10.10
2019-05-17T08:50:10.934Z,10.10
2019-05-17T08:52:40.224Z,10.10
2019-05-17T08:55:09.696Z,10.20
2019-05-17T08:57:39.963Z,10.20
2019-05-17T09:00:10.146Z,10.20
2019-05-17T09:02:37.015Z,10.30
2019-05-17T09:05:04.392Z,10.30
2019-05-17T09:07:31.979Z,10.40
2019-05-17T09:10:01.530Z,10.40
2019-05-17T09:12:30.033Z,10.40
2019-05-17T09:14:57.439Z,10.40
2019-05-17T09:17:25.019Z,10.40
2019-05-17T09:19:54.462Z,10.50
2019-05-17T09:22:22.475Z,10.50
2019-05-17T09:24:50.122Z,10.50
2019-05-17T09:27:19.775Z,10.60
2019-05-17T09:29:49.549Z,10.60
2019-05-17T09:32:16.908Z,10.70
2019-05-17T09:34:44.078Z,10.70
2019-05-17T09:37:14.816Z,10.70
2019-05-17T09:39:40.739Z,10.70
2019-05-17T09:42:10.410Z,10.80
2019-05-17T09:44:40.248Z,10.90
2019-05-17T09:47:09.988Z,10.90
2019-05-17T09:49:36.705Z,10.90
2019-05-17T09:52:04.201Z,10.90
2019-05-17T09:54:42.389Z,10.90
2019-05-17T09:57:01.468Z,11.00
2019-05-17T09:59:29.828Z,11.00
2019-05-17T10:01:59.981Z,11.10
2019-05-17T10:04:27.023Z,11.20
2019-05-17T10:06:54.596Z,11.30
2019-05-17T10:09:22.139Z,11.40
2019-05-17T10:11:49.585Z,11.40
2019-05-17T10:14:25.792Z,11.40
2019-05-17T10:16:46.583Z,11.50
2019-05-17T10:19:14.166Z,11.60
2019-05-17T10:21:42.131Z,11.60
2019-05-17T10:24:10.008Z,11.70
2019-05-17T10:26:37.572Z,11.80
2019-05-17T10:29:05.439Z,11.90
2019-05-17T10:31:32.619Z,11.90
2019-05-17T10:34:01.038Z,11.90
2019-05-17T10:36:29.416Z,12.00
2019-05-17T10:38:59.204Z,12.00
2019-05-17T10:41:26.451Z,12.10
2019-05-17T10:43:54.324Z,12.00
2019-05-17T10:46:21.893Z,12.10
2019-05-17T10:48:50.093Z,12.00
2019-05-17T10:51:20.308Z,12.00
2019-05-17T10:53:47.985Z,12.10
2019-05-17T10:56:15.163Z,12.10
2019-05-17T10:58:42.671Z,12.20
2019-05-17T11:01:10.382Z,12.20
2019-05-17T11:03:39.773Z,12.20
2019-05-17T11:06:07.575Z,12.20
2019-05-17T11:08:34.823Z,12.20
2019-05-17T11:11:02.532Z,12.20
2019-05-17T11:13:30.410Z,12.20
2019-05-17T11:15:57.604Z,12.20
2019-05-17T11:18:25.066Z,12.20
2019-05-17T11:20:52.336Z,12.20
2019-05-17T11:23:19.738Z,12.30
2019-05-17T11:25:47.260Z,12.30
2019-05-17T11:28:14.758Z,12.30
2019-05-17T11:30:42.956Z,12.30
2019-05-17T11:33:10.171Z,12.40
2019-05-17T11:35:38.079Z,12.40
2019-05-17T11:38:07.474Z,12.40
2019-05-17T11:40:34.624Z,12.50
2019-05-17T11:43:01.888Z,12.50
2019-05-17T11:45:32.828Z,12.60
2019-05-17T11:48:01.259Z,12.60
2019-05-17T11:50:29.031Z,12.60
2019-05-17T11:52:57.234Z,12.60
2019-05-17T11:55:25.466Z,12.70
2019-05-17T11:57:53.018Z,12.80
2019-05-17T12:00:21.601Z,12.80
2019-05-17T12:02:49.172Z,12.90
2019-05-17T12:05:16.493Z,13.00
2019-05-17T12:07:44.303Z,13.20
2019-05-17T12:10:12.006Z,13.30
2019-05-17T12:12:40.155Z,13.40
2019-05-17T12:15:08.020Z,13.40
2019-05-17T12:17:35.361Z,13.50
2019-05-17T12:20:02.990Z,13.60
2019-05-17T12:22:30.456Z,13.60
2019-05-17T12:24:57.900Z,13.70
2019-05-17T12:27:25.414Z,13.70
2019-05-17T12:29:53.302Z,13.80
2019-05-17T12:32:21.132Z,13.90
2019-05-17T12:34:48.770Z,13.90
2019-05-17T12:37:16.287Z,14.00
2019-05-17T12:39:43.419Z,14.00
2019-05-17T12:42:11.426Z,14.00
2019-05-17T12:44:39.090Z,14.10
2019-05-17T12:47:06.625Z,14.20
2019-05-17T12:49:34.130Z,14.20
2019-05-17T12:52:02.004Z,14.30
2019-05-17T12:54:29.557Z,14.40
2019-05-17T12:56:57.127Z,14.40
2019-05-17T12:59:24.999Z,14.40
2019-05-17T13:01:52.200Z,14.40
2019-05-17T13:04:20.025Z,14.40
2019-05-17T13:06:47.766Z,14.40
2019-05-17T13:09:15.851Z,14.30
2019-05-17T13:11:43.459Z,14.20
2019-05-17T13:14:11.517Z,14.30
2019-05-17T13:16:39.061Z,14.30
2019-05-17T13:19:06.259Z,14.30
2019-05-17T13:21:34.502Z,14.40
2019-05-17T13:24:02.049Z,14.40
2019-05-17T13:26:29.519Z,14.50
2019-05-17T13:28:56.923Z,14.60
2019-05-17T13:31:25.075Z,14.80
2019-05-17T13:33:52.637Z,15.00
2019-05-17T13:36:19.935Z,15.10
2019-05-17T13:38:47.855Z,15.30
2019-05-17T13:41:15.432Z,15.30
2019-05-17T13:43:42.670Z,15.40
2019-05-17T13:46:10.574Z,15.40
2019-05-17T13:48:38.846Z,15.50
2019-05-17T13:51:06.464Z,15.50
2019-05-17T13:53:34.040Z,15.60
2019-05-17T13:56:01.769Z,15.70
2019-05-17T13:58:29.411Z,15.90
2019-05-17T14:00:57.639Z,16.00
2019-05-17T14:03:25.473Z,16.00
2019-05-17T14:05:53.127Z,16.00
2019-05-17T14:08:20.661Z,16.10
2019-05-17T14:10:47.945Z,16.10
2019-05-17T14:13:15.187Z,16.20
2019-05-17T14:15:43.151Z,16.20
2019-05-17T14:18:10.339Z,16.20
2019-05-17T14:20:37.825Z,16.30
2019-05-17T14:23:05.365Z,16.40
2019-05-17T14:25:32.840Z,16.50
2019-05-17T14:28:00.358Z,16.60
2019-05-17T14:30:27.952Z,16.70
2019-05-17T14:32:55.852Z,16.80
2019-05-17T14:35:23.064Z,16.80
2019-05-17T14:37:50.288Z,16.70
2019-05-17T14:40:17.604Z,16.70
2019-05-17T14:42:45.026Z,16.70
2019-05-17T14:45:12.776Z,16.60
2019-05-17T14:47:40.053Z,16.70
2019-05-17T14:50:08.194Z,16.70
2019-05-17T14:52:36.652Z,16.70
2019-05-17T14:55:05.342Z,16.70
2019-05-17T14:57:33.415Z,16.80
2019-05-17T15:00:01.124Z,16.80
2019-05-17T15:02:28.464Z,16.90
2019-05-17T15:04:56.629Z,16.90
2019-05-17T15:07:23.830Z,16.90
2019-05-17T15:09:51.778Z,16.90
2019-05-17T15:12:27.903Z,16.80
2019-05-17T15:14:49.494Z,16.80
2019-05-17T15:17:17.168Z,16.70
2019-05-17T15:19:44.846Z,16.60
2019-05-17T15:22:12.641Z,16.50
2019-05-17T15:24:40.101Z,16.50
2019-05-17T15:27:08.283Z,16.50
2019-05-17T15:29:36.461Z,16.50
2019-05-17T15:32:03.915Z,16.40
2019-05-17T15:34:31.374Z,16.40
2019-05-17T15:36:58.943Z,16.50
2019-05-17T15:39:26.787Z,16.50
2019-05-17T15:41:54.564Z,16.50
2019-05-17T15:44:22.595Z,16.40
2019-05-17T15:46:50.079Z,16.40
2019-05-17T15:49:17.583Z,16.40
2019-05-17T15:51:44.898Z,16.30
2019-05-17T15:54:12.370Z,16.30
2019-05-17T15:56:39.851Z,16.40
2019-05-17T15:59:07.700Z,16.30
2019-05-17T16:01:35.197Z,16.20
2019-05-17T16:04:02.400Z,16.30
2019-05-17T16:06:29.583Z,16.30
2019-05-17T16:08:57.735Z,16.30
2019-05-17T16:11:25.463Z,16.40
2019-05-17T16:13:53.003Z,16.40
2019-05-17T16:16:21.027Z,16.60
2019-05-17T16:18:48.542Z,16.60
2019-05-17T16:21:17.209Z,16.70
2019-05-17T16:23:45.440Z,16.70
2019-05-17T16:26:13.961Z,16.70
2019-05-17T16:28:41.447Z,16.70
2019-05-17T16:31:09.462Z,16.70
2019-05-17T16:33:37.306Z,16.70
2019-05-17T16:36:05.128Z,16.80
2019-05-17T16:38:33.027Z,16.70
2019-05-17T16:41:00.603Z,16.70
2019-05-17T16:43:28.095Z,16.70
2019-05-17T16:45:55.614Z,16.70
2019-05-17T16:48:23.434Z,16.60
2019-05-17T16:50:51.044Z,16.60
2019-05-17T16:53:18.555Z,16.60
2019-05-17T16:55:46.717Z,16.60
2019-05-17T16:58:14.098Z,16.60
2019-05-17T17:00:41.984Z,16.60
2019-05-17T17:03:09.615Z,16.60
2019-05-17T17:05:37.366Z,16.50
2019-05-17T17:08:05.262Z,16.50
2019-05-17T17:10:32.872Z,16.40
2019-05-17T17:13:00.185Z,16.40
2019-05-17T17:15:28.086Z,16.40
2019-05-17T17:17:55.683Z,16.50
2019-05-17T17:20:23.416Z,16.50
2019-05-17T17:22:50.701Z,16.60
2019-05-17T17:25:17.991Z,16.70
2019-05-17T17:27:45.904Z,16.70
2019-05-17T17:30:15.932Z,16.70
2019-05-17T17:32:43.208Z,16.80
2019-05-17T17:35:12.779Z,16.70
2019-05-17T17:37:39.962Z,16.70
2019-05-17T17:40:07.802Z,16.60
2019-05-17T17:42:35.783Z,16.50
2019-05-17T17:45:03.687Z,16.50
2019-05-17T17:47:30.915Z,16.40
2019-05-17T17:49:58.899Z,16.30
2019-05-17T17:52:27.085Z,16.20
2019-05-17T17:54:54.953Z,16.20
2019-05-17T17:57:22.414Z,16.10
2019-05-17T17:59:50.574Z,16.10
2019-05-17T18:02:17.746Z,16.00
2019-05-17T18:04:45.614Z,16.00
2019-05-17T18:07:12.834Z,16.00
2019-05-17T18:09:40.313Z,16.00
2019-05-17T18:12:07.844Z,15.90
2019-05-17T18:14:35.071Z,15.80
2019-05-17T18:17:02.458Z,15.80
2019-05-17T18:19:30.119Z,15.70
2019-05-17T18:21:58.262Z,15.70
2019-05-17T18:24:25.459Z,15.60
2019-05-17T18:26:52.675Z,15.50
2019-05-17T18:29:20.529Z,15.40
2019-05-17T18:31:47.726Z,15.40
2019-05-17T18:34:15.267Z,15.40
2019-05-17T18:36:42.951Z,15.30
2019-05-17T18:39:10.689Z,15.30
2019-05-17T18:41:38.568Z,15.30
2019-05-17T18:44:06.087Z,15.20
2019-05-17T18:46:33.395Z,15.20
2019-05-17T18:49:01.772Z,15.10
2019-05-17T18:51:28.979Z,15.20
2019-05-17T18:53:57.561Z,15.20
2019-05-17T18:56:24.908Z,15.20
2019-05-17T18:58:52.846Z,15.20
2019-05-17T19:01:20.078Z,15.20
2019-05-17T19:03:47.543Z,15.20
2019-05-17T19:06:14.784Z,15.20
2019-05-17T19:08:42.283Z,15.10
2019-05-17T19:11:09.837Z,15.10
2019-05-17T19:13:36.983Z,15.00
2019-05-17T19:16:04.619Z,15.00
2019-05-17T19:18:32.247Z,14.90
2019-05-17T19:20:59.441Z,14.90
2019-05-17T19:23:27.069Z,14.80
2019-05-17T19:25:54.578Z,14.80
2019-05-17T19:28:22.209Z,14.70
2019-05-17T19:30:50.370Z,14.70
2019-05-17T19:33:18.191Z,14.60
2019-05-17T19:35:45.431Z,14.60
2019-05-17T19:38:12.922Z,14.50
2019-05-17T19:40:40.441Z,14.50
2019-05-17T19:43:07.937Z,14.40
2019-05-17T19:45:35.545Z,14.40
2019-05-17T19:48:03.227Z,14.50
2019-05-17T19:50:30.683Z,14.30
2019-05-17T19:52:57.937Z,14.30
2019-05-17T19:55:25.507Z,14.30
2019-05-17T19:57:52.706Z,14.30
2019-05-17T20:00:20.694Z,14.20
2019-05-17T20:02:48.125Z,14.20
2019-05-17T20:05:15.779Z,14.20
2019-05-17T20:07:43.434Z,14.10
2019-05-17T20:10:13.023Z,14.10
2019-05-17T20:12:40.869Z,14.10
2019-05-17T20:15:17.359Z,14.00
2019-05-17T20:17:38.858Z,14.00
2019-05-17T20:20:07.095Z,13.90
2019-05-17T20:22:34.539Z,13.90
2019-05-17T20:25:02.102Z,13.80
2019-05-17T20:27:29.441Z,13.80
2019-05-17T20:29:56.708Z,13.80
2019-05-17T20:32:23.970Z,13.80
2019-05-17T20:34:51.207Z,13.70
2019-05-17T20:37:18.473Z,13.70
2019-05-17T20:39:46.136Z,13.60
2019-05-17T20:42:14.339Z,13.50
2019-05-17T20:44:41.892Z,13.50
2019-05-17T20:47:09.227Z,13.40
2019-05-17T20:49:36.934Z,13.40
2019-05-17T20:52:04.479Z,13.30
2019-05-17T20:54:31.733Z,13.20
2019-05-17T20:56:58.962Z,13.20
2019-05-17T20:59:26.542Z,13.20
2019-05-17T21:01:54.340Z,13.10
2019-05-17T21:04:21.755Z,13.00
2019-05-17T21:06:49.687Z,13.00
2019-05-17T21:09:17.197Z,12.90
2019-05-17T21:11:44.788Z,12.90
2019-05-17T21:14:11.975Z,12.80
2019-05-17T21:16:39.459Z,12.80
2019-05-17T21:19:06.946Z,12.80
2019-05-17T21:21:34.170Z,12.70
2019-05-17T21:24:01.861Z,12.70
2019-05-17T21:26:29.469Z,12.60
2019-05-17T21:28:57.044Z,12.60
2019-05-17T21:31:24.598Z,12.50
2019-05-17T21:33:52.131Z,12.50
2019-05-17T21:36:19.839Z,12.50
2019-05-17T21:38:47.378Z,12.40
2019-05-17T21:41:14.966Z,12.40
2019-05-17T21:43:42.837Z,12.40
2019-05-17T21:46:11.021Z,12.30
2019-05-17T21:48:38.556Z,12.20
2019-05-17T21:51:05.766Z,12.30
2019-05-17T21:53:33.789Z,12.20
2019-05-17T21:56:01.008Z,12.20
2019-05-17T21:58:28.218Z,12.20
2019-05-17T22:01:23.085Z,12.20
2019-05-17T22:03:50.673Z,12.10
2019-05-17T22:06:18.277Z,12.10
2019-05-17T22:08:46.123Z,12.10
2019-05-17T22:11:13.492Z,12.10
2019-05-17T22:13:41.022Z,12.10
2019-05-17T22:16:18.968Z,12.00
2019-05-17T22:18:37.742Z,12.00
2019-05-17T22:21:05.489Z,12.00
2019-05-17T22:23:32.862Z,11.90
2019-05-17T22:26:00.371Z,11.90
2019-05-17T22:28:27.942Z,11.90
2019-05-17T22:30:55.530Z,11.90
2019-05-17T22:33:22.717Z,11.90
2019-05-17T22:35:49.963Z,11.90
2019-05-17T22:38:17.898Z,11.90
2019-05-17T22:40:45.615Z,11.80
2019-05-17T22:43:12.730Z,11.80
2019-05-17T22:45:41.147Z,11.80
2019-05-17T22:48:09.287Z,11.80
2019-05-17T22:50:37.015Z,11.80
2019-05-17T22:53:04.345Z,11.70
2019-05-17T22:55:32.190Z,11.70
2019-05-17T22:57:59.964Z,11.70
2019-05-17T23:00:27.939Z,11.70
2019-05-17T23:02:55.175Z,11.60
2019-05-17T23:05:26.322Z,11.60
2019-05-17T23:07:52.671Z,11.60
2019-05-17T23:10:20.242Z,11.60
2019-05-17T23:12:48.108Z,11.60
2019-05-17T23:15:15.330Z,11.50
2019-05-17T23:17:42.895Z,11.50
2019-05-17T23:20:12.063Z,11.50
2019-05-17T23:22:41.373Z,11.50
2019-05-17T23:25:09.729Z,11.40
2019-05-17T23:27:36.959Z,11.40
2019-05-17T23:30:04.874Z,11.40
2019-05-17T23:32:32.395Z,11.30
2019-05-17T23:35:00.912Z,11.30
2019-05-17T23:37:28.543Z,11.30
2019-05-17T23:39:55.791Z,11.30
2019-05-17T23:42:23.084Z,11.20
2019-05-17T23:44:51.186Z,11.20
2019-05-17T23:47:18.624Z,11.20
2019-05-17T23:49:46.501Z,11.20
2019-05-17T23:52:14.052Z,11.10
2019-05-17T23:54:41.723Z,11.10
2019-05-17T23:57:09.896Z,11.10
2019-05-17T23:59:37.671Z,11.00
